sensor_id;sensor_type;location;lat;lon;timestamp;P1;durP1;ratioP1;P2;durP2;ratioP2
26696;SDS011;14312;52.614;13.496;2023-05-23T00:02:24;1.63;;;1.52;;
26696;SDS011;14312;52.614;13.496;2023-05-23T00:05:10;2.00;;;1.80;;
26696;SDS011;14312;52.614;13.496;2023-05-23T00:07:56;2.03;;;1.88;;
26696;SDS011;14312;52.614;13.496;2023-05-23T00:10:42;2.05;;;1.92;;
26696;SDS011;14312;52.614;13.496;2023-05-23T00:13:29;3.08;;;1.98;;
26696;SDS011;14312;52.614;13.496;2023-05-23T00:16:18;2.05;;;1.75;;
26696;SDS011;14312;52.614;13.496;2023-05-23T00:19:04;2.00;;;1.90;;
26696;SDS011;14312;52.614;13.496;2023-05-23T00:21:50;2.03;;;1.85;;
26696;SDS011;14312;52.614;13.496;2023-05-23T00:24:38;1.80;;;1.70;;
26696;SDS011;14312;52.614;13.496;2023-05-23T00:27:24;2.00;;;1.90;;
26696;SDS011;14312;52.614;13.496;2023-05-23T00:30:10;2.28;;;2.08;;
26696;SDS011;14312;52.614;13.496;2023-05-23T00:32:56;1.98;;;1.88;;
26696;SDS011;14312;52.614;13.496;2023-05-23T00:35:42;2.30;;;2.10;;
26696;SDS011;14312;52.614;13.496;2023-05-23T00:38:28;2.25;;;2.05;;
26696;SDS011;14312;52.614;13.496;2023-05-23T00:41:14;2.20;;;2.00;;
26696;SDS011;14312;52.614;13.496;2023-05-23T00:44:03;2.50;;;2.00;;
26696;SDS011;14312;52.614;13.496;2023-05-23T00:46:50;2.22;;;2.03;;
26696;SDS011;14312;52.614;13.496;2023-05-23T00:49:39;2.05;;;1.95;;
26696;SDS011;14312;52.614;13.496;2023-05-23T00:52:26;1.75;;;1.65;;
26696;SDS011;14312;52.614;13.496;2023-05-23T00:55:12;1.92;;;1.83;;
26696;SDS011;14312;52.614;13.496;2023-05-23T00:57:59;2.10;;;1.90;;
26696;SDS011;14312;52.614;13.496;2023-05-23T01:00:45;2.08;;;1.85;;
26696;SDS011;14312;52.614;13.496;2023-05-23T01:03:34;1.88;;;1.67;;
26696;SDS011;14312;52.614;13.496;2023-05-23T01:06:20;2.53;;;2.33;;
26696;SDS011;14312;52.614;13.496;2023-05-23T01:09:06;2.17;;;1.95;;
26696;SDS011;14312;52.614;13.496;2023-05-23T01:15:06;2.08;;;1.88;;
26696;SDS011;14312;52.614;13.496;2023-05-23T01:18:03;2.15;;;1.95;;
26696;SDS011;14312;52.614;13.496;2023-05-23T01:21:10;2.50;;;1.80;;
26696;SDS011;14312;52.614;13.496;2023-05-23T01:26:59;2.22;;;2.03;;
26696;SDS011;14312;52.614;13.496;2023-05-23T01:29:46;2.28;;;2.08;;
26696;SDS011;14312;52.614;13.496;2023-05-23T01:32:37;2.30;;;2.10;;
26696;SDS011;14312;52.614;13.496;2023-05-23T01:35:25;2.33;;;2.13;;
26696;SDS011;14312;52.614;13.496;2023-05-23T01:38:11;2.30;;;2.10;;
26696;SDS011;14312;52.614;13.496;2023-05-23T01:40:58;2.72;;;2.53;;
26696;SDS011;14312;52.614;13.496;2023-05-23T01:43:43;2.50;;;2.22;;
26696;SDS011;14312;52.614;13.496;2023-05-23T01:46:30;2.85;;;1.88;;
26696;SDS011;14312;52.614;13.496;2023-05-23T01:49:18;2.05;;;1.88;;
26696;SDS011;14312;52.614;13.496;2023-05-23T01:52:06;2.30;;;2.10;;
26696;SDS011;14312;52.614;13.496;2023-05-23T01:54:54;2.22;;;2.03;;
26696;SDS011;14312;52.614;13.496;2023-05-23T01:57:41;1.98;;;1.88;;
26696;SDS011;14312;52.614;13.496;2023-05-23T02:00:30;2.72;;;2.35;;
26696;SDS011;14312;52.614;13.496;2023-05-23T02:03:16;2.58;;;2.30;;
26696;SDS011;14312;52.614;13.496;2023-05-23T02:06:02;2.20;;;2.00;;
26696;SDS011;14312;52.614;13.496;2023-05-23T02:08:49;3.53;;;1.90;;
26696;SDS011;14312;52.614;13.496;2023-05-23T02:11:35;3.97;;;2.50;;
26696;SDS011;14312;52.614;13.496;2023-05-23T02:14:21;2.47;;;2.10;;
26696;SDS011;14312;52.614;13.496;2023-05-23T02:17:07;3.75;;;2.30;;
26696;SDS011;14312;52.614;13.496;2023-05-23T02:19:56;2.50;;;2.22;;
26696;SDS011;14312;52.614;13.496;2023-05-23T02:22:42;2.40;;;2.20;;
26696;SDS011;14312;52.614;13.496;2023-05-23T02:25:28;2.30;;;2.10;;
26696;SDS011;14312;52.614;13.496;2023-05-23T02:28:14;2.35;;;2.15;;
26696;SDS011;14312;52.614;13.496;2023-05-23T02:31:01;2.47;;;2.28;;
26696;SDS011;14312;52.614;13.496;2023-05-23T02:33:47;2.53;;;2.30;;
26696;SDS011;14312;52.614;13.496;2023-05-23T02:36:33;2.20;;;2.00;;
26696;SDS011;14312;52.614;13.496;2023-05-23T02:39:19;2.60;;;2.40;;
26696;SDS011;14312;52.614;13.496;2023-05-23T02:42:05;2.67;;;2.47;;
26696;SDS011;14312;52.614;13.496;2023-05-23T02:44:51;2.15;;;2.00;;
26696;SDS011;14312;52.614;13.496;2023-05-23T02:47:37;2.38;;;2.17;;
26696;SDS011;14312;52.614;13.496;2023-05-23T02:50:23;2.17;;;2.08;;
26696;SDS011;14312;52.614;13.496;2023-05-23T02:53:09;2.30;;;2.10;;
26696;SDS011;14312;52.614;13.496;2023-05-23T02:55:55;2.50;;;2.30;;
26696;SDS011;14312;52.614;13.496;2023-05-23T02:58:40;2.67;;;2.20;;
26696;SDS011;14312;52.614;13.496;2023-05-23T03:01:27;2.53;;;2.33;;
26696;SDS011;14312;52.614;13.496;2023-05-23T03:04:13;3.42;;;2.40;;
26696;SDS011;14312;52.614;13.496;2023-05-23T03:06:58;2.65;;;2.45;;
26696;SDS011;14312;52.614;13.496;2023-05-23T03:09:44;2.55;;;2.35;;
26696;SDS011;14312;52.614;13.496;2023-05-23T03:12:30;2.90;;;2.60;;
26696;SDS011;14312;52.614;13.496;2023-05-23T03:15:16;2.15;;;1.95;;
26696;SDS011;14312;52.614;13.496;2023-05-23T03:18:02;2.58;;;2.38;;
26696;SDS011;14312;52.614;13.496;2023-05-23T03:20:48;2.60;;;2.35;;
26696;SDS011;14312;52.614;13.496;2023-05-23T03:23:34;2.80;;;2.22;;
26696;SDS011;14312;52.614;13.496;2023-05-23T03:26:21;2.85;;;2.55;;
26696;SDS011;14312;52.614;13.496;2023-05-23T03:29:07;2.55;;;2.30;;
26696;SDS011;14312;52.614;13.496;2023-05-23T03:31:55;2.42;;;2.22;;
26696;SDS011;14312;52.614;13.496;2023-05-23T03:34:41;2.83;;;2.40;;
26696;SDS011;14312;52.614;13.496;2023-05-23T03:37:27;2.85;;;2.55;;
26696;SDS011;14312;52.614;13.496;2023-05-23T03:40:13;2.80;;;2.60;;
26696;SDS011;14312;52.614;13.496;2023-05-23T03:43:02;2.40;;;2.20;;
26696;SDS011;14312;52.614;13.496;2023-05-23T03:45:49;2.78;;;2.50;;
26696;SDS011;14312;52.614;13.496;2023-05-23T03:48:35;2.70;;;2.50;;
26696;SDS011;14312;52.614;13.496;2023-05-23T03:51:21;2.80;;;2.50;;
26696;SDS011;14312;52.614;13.496;2023-05-23T03:54:08;2.60;;;2.40;;
26696;SDS011;14312;52.614;13.496;2023-05-23T03:56:54;2.70;;;2.50;;
26696;SDS011;14312;52.614;13.496;2023-05-23T03:59:40;3.17;;;2.78;;
26696;SDS011;14312;52.614;13.496;2023-05-23T04:02:26;2.53;;;2.33;;
26696;SDS011;14312;52.614;13.496;2023-05-23T04:05:12;2.42;;;2.22;;
26696;SDS011;14312;52.614;13.496;2023-05-23T04:07:58;2.70;;;2.50;;
26696;SDS011;14312;52.614;13.496;2023-05-23T04:10:47;2.70;;;2.50;;
26696;SDS011;14312;52.614;13.496;2023-05-23T04:13:33;3.00;;;2.70;;
26696;SDS011;14312;52.614;13.496;2023-05-23T04:16:19;2.90;;;2.65;;
26696;SDS011;14312;52.614;13.496;2023-05-23T04:19:07;2.78;;;2.58;;
26696;SDS011;14312;52.614;13.496;2023-05-23T04:21:53;2.58;;;2.38;;
26696;SDS011;14312;52.614;13.496;2023-05-23T04:24:38;3.00;;;2.65;;
26696;SDS011;14312;52.614;13.496;2023-05-23T04:27:25;2.55;;;2.35;;
26696;SDS011;14312;52.614;13.496;2023-05-23T04:30:11;3.03;;;2.53;;
26696;SDS011;14312;52.614;13.496;2023-05-23T04:32:58;3.33;;;2.58;;
26696;SDS011;14312;52.614;13.496;2023-05-23T04:35:44;2.83;;;2.60;;
26696;SDS011;14312;52.614;13.496;2023-05-23T04:38:30;3.30;;;2.55;;
26696;SDS011;14312;52.614;13.496;2023-05-23T04:41:16;3.22;;;2.50;;
26696;SDS011;14312;52.614;13.496;2023-05-23T04:44:07;2.60;;;2.33;;
26696;SDS011;14312;52.614;13.496;2023-05-23T04:46:54;3.03;;;2.72;;
26696;SDS011;14312;52.614;13.496;2023-05-23T04:49:41;2.97;;;2.70;;
26696;SDS011;14312;52.614;13.496;2023-05-23T04:52:27;4.43;;;2.70;;
26696;SDS011;14312;52.614;13.496;2023-05-23T04:55:14;2.72;;;2.53;;
26696;SDS011;14312;52.614;13.496;2023-05-23T04:58:00;2.90;;;2.70;;
26696;SDS011;14312;52.614;13.496;2023-05-23T05:00:46;2.72;;;2.53;;
26696;SDS011;14312;52.614;13.496;2023-05-23T05:03:32;2.85;;;2.60;;
26696;SDS011;14312;52.614;13.496;2023-05-23T05:06:18;2.95;;;2.72;;
26696;SDS011;14312;52.614;13.496;2023-05-23T05:09:05;3.22;;;2.92;;
26696;SDS011;14312;52.614;13.496;2023-05-23T05:11:51;3.65;;;2.85;;
26696;SDS011;14312;52.614;13.496;2023-05-23T05:14:37;3.10;;;2.80;;
26696;SDS011;14312;52.614;13.496;2023-05-23T05:17:23;2.95;;;2.75;;
26696;SDS011;14312;52.614;13.496;2023-05-23T05:20:10;2.92;;;2.72;;
26696;SDS011;14312;52.614;13.496;2023-05-23T05:22:56;2.80;;;2.53;;
26696;SDS011;14312;52.614;13.496;2023-05-23T05:25:42;3.55;;;2.78;;
26696;SDS011;14312;52.614;13.496;2023-05-23T05:28:29;2.50;;;2.30;;
26696;SDS011;14312;52.614;13.496;2023-05-23T05:31:15;3.72;;;2.97;;
26696;SDS011;14312;52.614;13.496;2023-05-23T05:34:01;2.90;;;2.70;;
26696;SDS011;14312;52.614;13.496;2023-05-23T05:36:46;3.53;;;2.70;;
26696;SDS011;14312;52.614;13.496;2023-05-23T05:39:32;4.85;;;3.13;;
26696;SDS011;14312;52.614;13.496;2023-05-23T05:42:21;3.10;;;2.80;;
26696;SDS011;14312;52.614;13.496;2023-05-23T05:45:08;3.17;;;2.88;;
26696;SDS011;14312;52.614;13.496;2023-05-23T05:47:55;3.22;;;2.92;;
26696;SDS011;14312;52.614;13.496;2023-05-23T05:50:42;3.38;;;3.08;;
26696;SDS011;14312;52.614;13.496;2023-05-23T05:53:29;3.15;;;2.85;;
26696;SDS011;14312;52.614;13.496;2023-05-23T05:56:15;3.10;;;2.90;;
26696;SDS011;14312;52.614;13.496;2023-05-23T05:59:01;3.55;;;3.25;;
26696;SDS011;14312;52.614;13.496;2023-05-23T06:01:47;3.83;;;3.35;;
26696;SDS011;14312;52.614;13.496;2023-05-23T06:04:35;3.70;;;3.40;;
26696;SDS011;14312;52.614;13.496;2023-05-23T06:07:21;4.32;;;3.50;;
26696;SDS011;14312;52.614;13.496;2023-05-23T06:10:07;3.72;;;3.42;;
26696;SDS011;14312;52.614;13.496;2023-05-23T06:12:54;4.72;;;3.55;;
26696;SDS011;14312;52.614;13.496;2023-05-23T06:15:40;3.50;;;3.20;;
26696;SDS011;14312;52.614;13.496;2023-05-23T06:18:26;3.60;;;3.00;;
26696;SDS011;14312;52.614;13.496;2023-05-23T06:21:12;3.20;;;3.00;;
26696;SDS011;14312;52.614;13.496;2023-05-23T06:23:57;3.10;;;2.90;;
26696;SDS011;14312;52.614;13.496;2023-05-23T06:26:43;3.17;;;2.90;;
26696;SDS011;14312;52.614;13.496;2023-05-23T06:29:29;3.28;;;3.08;;
26696;SDS011;14312;52.614;13.496;2023-05-23T06:32:20;3.03;;;2.78;;
26696;SDS011;14312;52.614;13.496;2023-05-23T06:35:06;3.78;;;3.47;;
26696;SDS011;14312;52.614;13.496;2023-05-23T06:37:52;3.20;;;2.85;;
26696;SDS011;14312;52.614;13.496;2023-05-23T06:40:38;2.88;;;2.65;;
26696;SDS011;14312;52.614;13.496;2023-05-23T06:43:24;3.15;;;2.95;;
26696;SDS011;14312;52.614;13.496;2023-05-23T06:46:10;3.92;;;3.63;;
26696;SDS011;14312;52.614;13.496;2023-05-23T06:48:56;3.63;;;3.33;;
26696;SDS011;14312;52.614;13.496;2023-05-23T06:51:42;3.60;;;3.20;;
26696;SDS011;14312;52.614;13.496;2023-05-23T06:54:28;3.05;;;2.75;;
26696;SDS011;14312;52.614;13.496;2023-05-23T06:57:14;2.80;;;2.60;;
26696;SDS011;14312;52.614;13.496;2023-05-23T07:00:00;4.10;;;3.00;;
26696;SDS011;14312;52.614;13.496;2023-05-23T07:02:46;3.53;;;3.22;;
26696;SDS011;14312;52.614;13.496;2023-05-23T07:05:33;3.55;;;3.25;;
26696;SDS011;14312;52.614;13.496;2023-05-23T07:08:19;3.70;;;3.33;;
26696;SDS011;14312;52.614;13.496;2023-05-23T07:11:05;4.07;;;3.25;;
26696;SDS011;14312;52.614;13.496;2023-05-23T07:13:51;3.53;;;3.20;;
26696;SDS011;14312;52.614;13.496;2023-05-23T07:16:37;3.58;;;3.28;;
26696;SDS011;14312;52.614;13.496;2023-05-23T07:19:23;3.58;;;3.28;;
26696;SDS011;14312;52.614;13.496;2023-05-23T07:22:09;3.42;;;3.13;;
26696;SDS011;14312;52.614;13.496;2023-05-23T07:24:55;4.70;;;3.13;;
26696;SDS011;14312;52.614;13.496;2023-05-23T07:27:41;4.65;;;3.85;;
26696;SDS011;14312;52.614;13.496;2023-05-23T07:30:27;3.70;;;3.35;;
26696;SDS011;14312;52.614;13.496;2023-05-23T07:33:13;3.80;;;3.40;;
26696;SDS011;14312;52.614;13.496;2023-05-23T07:35:59;4.07;;;3.60;;
26696;SDS011;14312;52.614;13.496;2023-05-23T07:38:45;2.90;;;2.70;;
26696;SDS011;14312;52.614;13.496;2023-05-23T07:41:31;4.13;;;3.13;;
26696;SDS011;14312;52.614;13.496;2023-05-23T07:44:17;3.40;;;3.05;;
26696;SDS011;14312;52.614;13.496;2023-05-23T07:47:04;3.60;;;3.30;;
26696;SDS011;14312;52.614;13.496;2023-05-23T07:49:50;3.17;;;2.88;;
26696;SDS011;14312;52.614;13.496;2023-05-23T07:52:36;4.25;;;3.45;;
26696;SDS011;14312;52.614;13.496;2023-05-23T07:55:22;3.38;;;3.05;;
26696;SDS011;14312;52.614;13.496;2023-05-23T07:58:09;4.47;;;3.35;;
26696;SDS011;14312;52.614;13.496;2023-05-23T08:00:55;4.03;;;3.03;;
26696;SDS011;14312;52.614;13.496;2023-05-23T08:03:42;3.78;;;3.45;;
26696;SDS011;14312;52.614;13.496;2023-05-23T08:06:28;4.28;;;3.28;;
26696;SDS011;14312;52.614;13.496;2023-05-23T08:09:14;3.80;;;3.38;;
26696;SDS011;14312;52.614;13.496;2023-05-23T08:12:00;4.20;;;3.80;;
26696;SDS011;14312;52.614;13.496;2023-05-23T08:14:46;4.75;;;3.47;;
26696;SDS011;14312;52.614;13.496;2023-05-23T08:17:32;6.18;;;3.92;;
26696;SDS011;14312;52.614;13.496;2023-05-23T08:20:18;4.55;;;3.33;;
26696;SDS011;14312;52.614;13.496;2023-05-23T08:23:04;5.15;;;3.50;;
26696;SDS011;14312;52.614;13.496;2023-05-23T08:25:51;4.68;;;3.47;;
26696;SDS011;14312;52.614;13.496;2023-05-23T08:28:37;3.50;;;3.17;;
26696;SDS011;14312;52.614;13.496;2023-05-23T08:31:23;3.78;;;3.40;;
26696;SDS011;14312;52.614;13.496;2023-05-23T08:34:09;4.25;;;3.30;;
26696;SDS011;14312;52.614;13.496;2023-05-23T08:36:55;3.55;;;3.25;;
26696;SDS011;14312;52.614;13.496;2023-05-23T08:39:41;4.15;;;3.20;;
26696;SDS011;14312;52.614;13.496;2023-05-23T08:42:27;3.42;;;3.13;;
26696;SDS011;14312;52.614;13.496;2023-05-23T08:45:13;7.72;;;3.30;;
26696;SDS011;14312;52.614;13.496;2023-05-23T08:48:00;3.30;;;3.03;;
26696;SDS011;14312;52.614;13.496;2023-05-23T08:50:50;3.45;;;3.15;;
26696;SDS011;14312;52.614;13.496;2023-05-23T08:53:38;4.03;;;3.60;;
26696;SDS011;14312;52.614;13.496;2023-05-23T08:56:27;3.47;;;3.20;;
26696;SDS011;14312;52.614;13.496;2023-05-23T08:59:13;4.45;;;3.63;;
26696;SDS011;14312;52.614;13.496;2023-05-23T09:02:00;3.78;;;3.25;;
26696;SDS011;14312;52.614;13.496;2023-05-23T09:04:48;3.63;;;3.33;;
26696;SDS011;14312;52.614;13.496;2023-05-23T09:07:34;3.38;;;3.08;;
26696;SDS011;14312;52.614;13.496;2023-05-23T09:10:21;3.50;;;3.20;;
26696;SDS011;14312;52.614;13.496;2023-05-23T09:13:07;3.50;;;3.20;;
26696;SDS011;14312;52.614;13.496;2023-05-23T09:16:08;3.60;;;3.30;;
26696;SDS011;14312;52.614;13.496;2023-05-23T09:18:54;4.05;;;3.55;;
26696;SDS011;14312;52.614;13.496;2023-05-23T09:21:41;4.03;;;3.38;;
26696;SDS011;14312;52.614;13.496;2023-05-23T09:24:35;3.80;;;3.45;;
26696;SDS011;14312;52.614;13.496;2023-05-23T09:27:21;3.67;;;3.38;;
26696;SDS011;14312;52.614;13.496;2023-05-23T09:30:08;3.58;;;3.28;;
26696;SDS011;14312;52.614;13.496;2023-05-23T09:32:56;4.05;;;3.58;;
26696;SDS011;14312;52.614;13.496;2023-05-23T09:35:44;3.45;;;3.15;;
26696;SDS011;14312;52.614;13.496;2023-05-23T09:38:31;5.03;;;3.10;;
26696;SDS011;14312;52.614;13.496;2023-05-23T09:41:18;3.55;;;3.25;;
26696;SDS011;14312;52.614;13.496;2023-05-23T09:44:07;4.47;;;3.50;;
26696;SDS011;14312;52.614;13.496;2023-05-23T09:46:53;3.50;;;3.13;;
26696;SDS011;14312;52.614;13.496;2023-05-23T09:49:40;3.65;;;3.35;;
26696;SDS011;14312;52.614;13.496;2023-05-23T09:52:33;3.95;;;3.30;;
26696;SDS011;14312;52.614;13.496;2023-05-23T09:55:21;3.67;;;3.38;;
26696;SDS011;14312;52.614;13.496;2023-05-23T09:58:08;3.58;;;3.28;;
26696;SDS011;14312;52.614;13.496;2023-05-23T10:00:55;4.32;;;3.15;;
26696;SDS011;14312;52.614;13.496;2023-05-23T10:03:49;3.47;;;3.25;;
26696;SDS011;14312;52.614;13.496;2023-05-23T10:09:35;3.72;;;3.42;;
26696;SDS011;14312;52.614;13.496;2023-05-23T10:15:17;4.40;;;3.30;;
26696;SDS011;14312;52.614;13.496;2023-05-23T10:21:08;4.20;;;3.72;;
26696;SDS011;14312;52.614;13.496;2023-05-23T10:23:57;3.63;;;3.40;;
26696;SDS011;14312;52.614;13.496;2023-05-23T10:26:45;3.95;;;3.65;;
26696;SDS011;14312;52.614;13.496;2023-05-23T10:29:31;4.30;;;4.00;;
26696;SDS011;14312;52.614;13.496;2023-05-23T10:32:18;4.10;;;3.70;;
26696;SDS011;14312;52.614;13.496;2023-05-23T10:35:09;4.13;;;3.65;;
26696;SDS011;14312;52.614;13.496;2023-05-23T10:41:23;4.03;;;3.72;;
26696;SDS011;14312;52.614;13.496;2023-05-23T10:44:25;6.82;;;4.22;;
26696;SDS011;14312;52.614;13.496;2023-05-23T10:47:13;3.85;;;3.55;;
26696;SDS011;14312;52.614;13.496;2023-05-23T10:50:11;6.72;;;4.20;;
26696;SDS011;14312;52.614;13.496;2023-05-23T10:53:00;4.18;;;3.80;;
26696;SDS011;14312;52.614;13.496;2023-05-23T10:55:47;4.85;;;4.45;;
26696;SDS011;14312;52.614;13.496;2023-05-23T10:58:40;3.92;;;3.63;;
26696;SDS011;14312;52.614;13.496;2023-05-23T11:01:26;3.75;;;3.42;;
26696;SDS011;14312;52.614;13.496;2023-05-23T11:04:12;4.20;;;3.90;;
26696;SDS011;14312;52.614;13.496;2023-05-23T11:06:58;4.82;;;4.43;;
26696;SDS011;14312;52.614;13.496;2023-05-23T11:13:08;4.35;;;3.95;;
26696;SDS011;14312;52.614;13.496;2023-05-23T11:15:55;4.35;;;4.00;;
26696;SDS011;14312;52.614;13.496;2023-05-23T11:18:41;3.75;;;3.45;;
26696;SDS011;14312;52.614;13.496;2023-05-23T11:21:29;5.10;;;4.60;;
26696;SDS011;14312;52.614;13.496;2023-05-23T11:24:16;5.55;;;5.05;;
26696;SDS011;14312;52.614;13.496;2023-05-23T11:27:02;5.13;;;4.72;;
26696;SDS011;14312;52.614;13.496;2023-05-23T11:29:58;5.43;;;4.93;;
26696;SDS011;14312;52.614;13.496;2023-05-23T11:32:49;5.32;;;4.93;;
26696;SDS011;14312;52.614;13.496;2023-05-23T11:35:38;5.40;;;4.95;;
26696;SDS011;14312;52.614;13.496;2023-05-23T11:38:25;6.13;;;5.53;;
26696;SDS011;14312;52.614;13.496;2023-05-23T11:41:11;5.00;;;4.60;;
26696;SDS011;14312;52.614;13.496;2023-05-23T11:43:57;4.32;;;4.03;;
26696;SDS011;14312;52.614;13.496;2023-05-23T11:46:57;4.40;;;4.10;;
26696;SDS011;14312;52.614;13.496;2023-05-23T11:49:47;3.90;;;3.60;;
26696;SDS011;14312;52.614;13.496;2023-05-23T11:52:33;4.43;;;4.13;;
26696;SDS011;14312;52.614;13.496;2023-05-23T11:55:20;4.90;;;4.50;;
26696;SDS011;14312;52.614;13.496;2023-05-23T11:58:06;5.80;;;5.40;;
26696;SDS011;14312;52.614;13.496;2023-05-23T12:00:57;7.30;;;6.70;;
26696;SDS011;14312;52.614;13.496;2023-05-23T12:03:48;6.93;;;6.38;;
26696;SDS011;14312;52.614;13.496;2023-05-23T12:06:37;7.72;;;7.13;;
26696;SDS011;14312;52.614;13.496;2023-05-23T12:09:25;7.10;;;6.50;;
26696;SDS011;14312;52.614;13.496;2023-05-23T12:12:11;6.07;;;5.47;;
26696;SDS011;14312;52.614;13.496;2023-05-23T12:14:58;5.32;;;4.93;;
26696;SDS011;14312;52.614;13.496;2023-05-23T12:17:44;5.05;;;4.65;;
26696;SDS011;14312;52.614;13.496;2023-05-23T12:20:30;5.10;;;4.70;;
26696;SDS011;14312;52.614;13.496;2023-05-23T12:23:23;4.90;;;4.50;;
26696;SDS011;14312;52.614;13.496;2023-05-23T12:26:09;5.13;;;4.72;;
26696;SDS011;14312;52.614;13.496;2023-05-23T12:28:56;5.20;;;4.80;;
26696;SDS011;14312;52.614;13.496;2023-05-23T12:31:42;5.93;;;5.53;;
26696;SDS011;14312;52.614;13.496;2023-05-23T12:34:28;7.72;;;7.03;;
26696;SDS011;14312;52.614;13.496;2023-05-23T12:37:14;7.15;;;6.55;;
26696;SDS011;14312;52.614;13.496;2023-05-23T12:40:17;6.82;;;6.30;;
26696;SDS011;14312;52.614;13.496;2023-05-23T12:43:07;8.23;;;7.43;;
26696;SDS011;14312;52.614;13.496;2023-05-23T12:45:54;8.55;;;7.75;;
26696;SDS011;14312;52.614;13.496;2023-05-23T12:48:40;10.52;;;9.63;;
26696;SDS011;14312;52.614;13.496;2023-05-23T12:51:26;12.23;;;8.57;;
26696;SDS011;14312;52.614;13.496;2023-05-23T12:54:12;9.48;;;8.68;;
26696;SDS011;14312;52.614;13.496;2023-05-23T12:56:58;9.50;;;8.60;;
26696;SDS011;14312;52.614;13.496;2023-05-23T12:59:44;10.13;;;9.13;;
26696;SDS011;14312;52.614;13.496;2023-05-23T13:02:30;9.70;;;8.73;;
26696;SDS011;14312;52.614;13.496;2023-05-23T13:05:16;9.90;;;9.10;;
26696;SDS011;14312;52.614;13.496;2023-05-23T13:08:02;9.48;;;8.60;;
26696;SDS011;14312;52.614;13.496;2023-05-23T13:10:48;8.32;;;7.57;;
26696;SDS011;14312;52.614;13.496;2023-05-23T13:13:34;8.82;;;8.02;;
26696;SDS011;14312;52.614;13.496;2023-05-23T13:16:20;8.70;;;7.90;;
26696;SDS011;14312;52.614;13.496;2023-05-23T13:19:06;8.20;;;7.50;;
26696;SDS011;14312;52.614;13.496;2023-05-23T13:21:52;8.07;;;6.90;;
26696;SDS011;14312;52.614;13.496;2023-05-23T13:24:38;7.70;;;7.00;;
26696;SDS011;14312;52.614;13.496;2023-05-23T13:27:25;7.47;;;6.88;;
26696;SDS011;14312;52.614;13.496;2023-05-23T13:30:11;8.80;;;8.00;;
26696;SDS011;14312;52.614;13.496;2023-05-23T13:32:57;7.97;;;7.30;;
26696;SDS011;14312;52.614;13.496;2023-05-23T13:35:43;7.95;;;7.25;;
26696;SDS011;14312;52.614;13.496;2023-05-23T13:38:29;8.63;;;7.88;;
26696;SDS011;14312;52.614;13.496;2023-05-23T13:41:16;8.57;;;7.78;;
26696;SDS011;14312;52.614;13.496;2023-05-23T13:44:02;9.23;;;8.43;;
26696;SDS011;14312;52.614;13.496;2023-05-23T13:46:48;9.75;;;8.85;;
26696;SDS011;14312;52.614;13.496;2023-05-23T13:49:34;9.48;;;8.65;;
26696;SDS011;14312;52.614;13.496;2023-05-23T13:52:20;9.93;;;9.02;;
26696;SDS011;14312;52.614;13.496;2023-05-23T13:55:07;8.55;;;7.75;;
26696;SDS011;14312;52.614;13.496;2023-05-23T13:57:54;8.55;;;7.75;;
26696;SDS011;14312;52.614;13.496;2023-05-23T14:00:40;9.02;;;8.13;;
26696;SDS011;14312;52.614;13.496;2023-05-23T14:03:25;9.23;;;8.32;;
26696;SDS011;14312;52.614;13.496;2023-05-23T14:06:11;10.43;;;8.35;;
26696;SDS011;14312;52.614;13.496;2023-05-23T14:08:58;9.48;;;8.57;;
26696;SDS011;14312;52.614;13.496;2023-05-23T14:11:44;9.77;;;8.77;;
26696;SDS011;14312;52.614;13.496;2023-05-23T14:14:30;9.55;;;8.65;;
26696;SDS011;14312;52.614;13.496;2023-05-23T14:17:16;10.50;;;9.50;;
26696;SDS011;14312;52.614;13.496;2023-05-23T14:20:02;9.75;;;8.80;;
26696;SDS011;14312;52.614;13.496;2023-05-23T14:22:48;9.18;;;8.32;;
26696;SDS011;14312;52.614;13.496;2023-05-23T14:25:36;9.20;;;8.30;;
26696;SDS011;14312;52.614;13.496;2023-05-23T14:28:21;8.75;;;7.90;;
26696;SDS011;14312;52.614;13.496;2023-05-23T14:31:07;8.35;;;7.57;;
26696;SDS011;14312;52.614;13.496;2023-05-23T14:33:53;8.20;;;7.47;;
26696;SDS011;14312;52.614;13.496;2023-05-23T14:36:39;8.27;;;6.88;;
26696;SDS011;14312;52.614;13.496;2023-05-23T14:39:25;8.52;;;7.68;;
26696;SDS011;14312;52.614;13.496;2023-05-23T14:42:13;7.80;;;7.10;;
26696;SDS011;14312;52.614;13.496;2023-05-23T14:44:59;7.13;;;6.43;;
26696;SDS011;14312;52.614;13.496;2023-05-23T14:47:45;7.85;;;7.10;;
26696;SDS011;14312;52.614;13.496;2023-05-23T14:50:31;6.68;;;6.07;;
26696;SDS011;14312;52.614;13.496;2023-05-23T14:53:17;6.70;;;6.10;;
26696;SDS011;14312;52.614;13.496;2023-05-23T14:56:06;7.22;;;6.53;;
26696;SDS011;14312;52.614;13.496;2023-05-23T14:58:53;6.20;;;5.60;;
26696;SDS011;14312;52.614;13.496;2023-05-23T15:01:40;6.35;;;5.75;;
26696;SDS011;14312;52.614;13.496;2023-05-23T15:04:26;6.03;;;5.53;;
26696;SDS011;14312;52.614;13.496;2023-05-23T15:07:12;5.90;;;5.40;;
26696;SDS011;14312;52.614;13.496;2023-05-23T15:10:03;4.70;;;4.30;;
26696;SDS011;14312;52.614;13.496;2023-05-23T15:12:49;4.47;;;3.78;;
26696;SDS011;14312;52.614;13.496;2023-05-23T15:15:35;3.40;;;3.10;;
26696;SDS011;14312;52.614;13.496;2023-05-23T15:18:22;3.30;;;3.00;;
26696;SDS011;14312;52.614;13.496;2023-05-23T15:21:08;2.80;;;2.60;;
26696;SDS011;14312;52.614;13.496;2023-05-23T15:23:55;2.50;;;2.30;;
26696;SDS011;14312;52.614;13.496;2023-05-23T15:26:42;2.90;;;2.45;;
26696;SDS011;14312;52.614;13.496;2023-05-23T15:29:28;3.03;;;2.45;;
26696;SDS011;14312;52.614;13.496;2023-05-23T15:32:14;3.85;;;2.10;;
26696;SDS011;14312;52.614;13.496;2023-05-23T15:35:00;2.30;;;2.13;;
26696;SDS011;14312;52.614;13.496;2023-05-23T15:37:45;2.42;;;2.22;;
26696;SDS011;14312;52.614;13.496;2023-05-23T15:40:31;3.75;;;2.60;;
26696;SDS011;14312;52.614;13.496;2023-05-23T15:43:17;2.50;;;2.30;;
26696;SDS011;14312;52.614;13.496;2023-05-23T15:46:03;2.17;;;1.95;;
26696;SDS011;14312;52.614;13.496;2023-05-23T15:48:49;2.30;;;2.00;;
26696;SDS011;14312;52.614;13.496;2023-05-23T15:51:35;2.05;;;1.85;;
26696;SDS011;14312;52.614;13.496;2023-05-23T15:54:21;2.92;;;1.60;;
26696;SDS011;14312;52.614;13.496;2023-05-23T15:57:07;2.17;;;1.98;;
26696;SDS011;14312;52.614;13.496;2023-05-23T15:59:53;2.80;;;1.80;;
26696;SDS011;14312;52.614;13.496;2023-05-23T16:02:39;2.00;;;1.90;;
26696;SDS011;14312;52.614;13.496;2023-05-23T16:05:25;1.98;;;1.85;;
26696;SDS011;14312;52.614;13.496;2023-05-23T16:08:11;1.73;;;1.63;;
26696;SDS011;14312;52.614;13.496;2023-05-23T16:10:58;1.90;;;1.80;;
26696;SDS011;14312;52.614;13.496;2023-05-23T16:13:44;1.60;;;1.50;;
26696;SDS011;14312;52.614;13.496;2023-05-23T16:16:30;2.33;;;1.60;;
26696;SDS011;14312;52.614;13.496;2023-05-23T16:19:15;2.03;;;1.50;;
26696;SDS011;14312;52.614;13.496;2023-05-23T16:22:01;1.27;;;1.20;;
26696;SDS011;14312;52.614;13.496;2023-05-23T16:24:47;1.55;;;1.45;;
26696;SDS011;14312;52.614;13.496;2023-05-23T16:27:33;1.38;;;1.27;;
26696;SDS011;14312;52.614;13.496;2023-05-23T16:30:19;1.27;;;1.17;;
26696;SDS011;14312;52.614;13.496;2023-05-23T16:33:05;2.05;;;1.38;;
26696;SDS011;14312;52.614;13.496;2023-05-23T16:35:51;1.35;;;1.25;;
26696;SDS011;14312;52.614;13.496;2023-05-23T16:38:37;1.65;;;1.52;;
26696;SDS011;14312;52.614;13.496;2023-05-23T16:41:23;2.22;;;2.00;;
26696;SDS011;14312;52.614;13.496;2023-05-23T16:44:09;2.05;;;1.88;;
26696;SDS011;14312;52.614;13.496;2023-05-23T16:46:55;1.83;;;1.73;;
26696;SDS011;14312;52.614;13.496;2023-05-23T16:49:41;3.50;;;2.10;;
26696;SDS011;14312;52.614;13.496;2023-05-23T16:52:27;2.28;;;2.08;;